Time;durP1;ratioP1;P1;durP2;ratioP2;P2;SDS_P1;SDS_P2;PMS_P1;PMS_P2;Temp;Humidity;BMP_temperature;BMP_pressure;BME280_temperature;BME280_humidity;BME280_pressure;Samples;Min_cycle;Max_cycle;Signal;HPM_P1;HPM_P2
2024/01/09 00:00:52;;;;;;;3.57;1.60;;;0.10;99.90;;;-2.12;53.18;100890.50;10253310;28;96649;-83
2024/01/09 00:05:56;;;;;;;9.07;2.20;;;0.10;99.90;;;-2.08;52.45;100896.44;10254039;28;96773;-82
2024/01/09 00:11:00;;;;;;;6.33;1.40;;;0.10;99.30;;;-2.11;53.47;100894.78;10239679;28;97897;-83
2024/01/09 00:16:04;;;;;;;2.97;1.30;;;0.10;99.90;;;-2.17;53.92;100903.72;10256922;28;96529;-83
2024/01/09 00:21:08;;;;;;;5.03;1.70;;;0.10;99.90;;;-2.22;53.32;100910.06;10251725;28;97908;-83
2024/01/09 00:26:12;;;;;;;4.53;1.83;;;0.00;99.90;;;-2.25;53.34;100925.81;10263815;28;96694;-83
2024/01/09 00:31:16;;;;;;;3.43;1.50;;;0.00;99.90;;;-2.29;52.47;100921.66;10253959;28;96536;-83
2024/01/09 00:36:20;;;;;;;8.57;2.33;;;-0.10;99.00;;;-2.31;50.72;100941.72;10248844;28;96549;-83
2024/01/09 00:41:23;;;;;;;6.67;1.47;;;-0.10;97.80;;;-2.35;51.29;100934.94;10241128;28;96545;-82
2024/01/09 00:46:30;;;;;;;4.20;1.50;;;-0.10;98.90;;;-2.36;51.10;100948.88;10235874;28;96657;-83
2024/01/09 00:51:34;;;;;;;3.53;1.30;;;-0.10;99.30;;;-2.36;49.96;100948.88;10236961;28;96710;-82
2024/01/09 00:56:37;;;;;;;3.20;1.27;;;-0.10;97.70;;;-2.37;48.73;100952.41;10253632;28;98230;-83
2024/01/09 01:01:41;;;;;;;2.90;1.30;;;-0.10;96.20;;;-2.36;49.01;100964.50;10253146;28;96592;-82
2024/01/09 01:06:45;;;;;;;3.37;1.30;;;-0.10;97.80;;;-2.44;49.73;100973.50;10253324;28;96637;-82
2024/01/09 01:11:49;;;;;;;3.67;1.50;;;-0.20;98.50;;;-2.45;48.92;100969.22;10252970;28;96477;-83
2024/01/09 01:16:53;;;;;;;5.33;1.80;;;-0.20;98.00;;;-2.35;49.56;100981.81;10250041;28;96592;-83
2024/01/09 01:21:56;;;;;;;3.00;1.33;;;-0.20;96.80;;;-2.28;50.34;100991.03;10245780;28;96946;-83
2024/01/09 01:27:00;;;;;;;3.47;1.50;;;-0.10;98.60;;;-2.21;48.69;100995.09;10251833;28;96728;-83
2024/01/09 01:32:09;;;;;;;4.17;1.20;;;0.00;95.10;;;-2.12;49.30;100999.03;10252254;28;96590;-83
2024/01/09 01:37:13;;;;;;;3.40;1.40;;;0.10;96.60;;;-2.07;47.31;100997.06;10251705;28;96482;-83
2024/01/09 01:42:17;;;;;;;3.83;1.60;;;0.10;94.90;;;-2.02;47.00;100995.97;10234256;28;96468;-83
2024/01/09 01:47:20;;;;;;;3.70;1.50;;;0.20;94.50;;;-1.96;46.68;101000.91;10250735;28;96677;-83
2024/01/09 01:52:24;;;;;;;3.50;1.37;;;0.20;93.90;;;-1.94;46.47;101008.63;10250718;28;97780;-83
2024/01/09 01:57:28;;;;;;;3.60;1.60;;;0.20;94.70;;;-1.92;47.10;101006.78;10249216;28;96479;-83
2024/01/09 02:02:32;;;;;;;3.07;1.40;;;0.30;94.60;;;-1.90;46.17;101010.19;10244690;28;98209;-83
2024/01/09 02:07:36;;;;;;;4.30;1.50;;;0.30;95.10;;;-1.91;45.49;101004.16;10247389;28;96615;-83
2024/01/09 02:12:41;;;;;;;3.90;1.27;;;0.30;93.70;;;-1.91;45.45;101014.56;10247641;28;96758;-82
2024/01/09 02:17:45;;;;;;;3.13;1.20;;;0.30;93.30;;;-1.91;45.81;101011.97;10250483;28;97938;-83
2024/01/09 02:22:49;;;;;;;3.67;1.40;;;0.30;94.40;;;-1.87;44.78;101007.44;10249849;28;96434;-83
2024/01/09 02:28:54;;;;;;;3.87;1.20;;;0.30;92.70;;;-1.86;45.64;101013.50;10247448;28;96590;-83
2024/01/09 02:33:57;;;;;;;3.15;1.33;;;0.30;93.30;;;-1.86;44.67;101013.50;10242510;28;96489;-83
2024/01/09 02:39:01;;;;;;;2.50;1.30;;;0.30;91.60;;;-1.85;44.28;101017.81;10265903;28;96476;-83
2024/01/09 02:44:05;;;;;;;3.00;1.20;;;0.30;87.70;;;-1.84;45.66;101019.50;10251676;28;98289;-83
2024/01/09 02:49:11;;;;;;;4.40;1.30;;;0.30;93.80;;;-1.85;46.27;101021.25;10266191;28;97274;-83
2024/01/09 02:54:15;;;;;;;3.53;1.30;;;0.30;93.90;;;-1.90;46.04;101023.22;10266807;28;97528;-83
2024/01/09 02:59:18;;;;;;;5.67;1.60;;;0.30;94.60;;;-1.89;45.90;101028.34;10274183;28;96513;-83
2024/01/09 03:04:22;;;;;;;2.13;1.10;;;0.30;93.70;;;-1.88;43.80;101034.41;10233610;28;96433;-82
2024/01/09 03:09:25;;;;;;;2.63;1.10;;;0.30;90.60;;;-1.89;43.82;101041.38;10250283;28;96558;-83
2024/01/09 03:14:28;;;;;;;2.37;1.00;;;0.30;88.40;;;-1.89;44.01;101033.56;10248607;28;96723;-83
2024/01/09 03:19:32;;;;;;;2.40;1.00;;;0.20;90.40;;;-1.92;44.00;101033.72;10249158;28;96494;-83
2024/01/09 03:24:36;;;;;;;3.63;1.47;;;0.30;92.50;;;-1.90;44.45;101049.28;10246395;28;96631;-82
2024/01/09 03:29:40;;;;;;;6.17;1.50;;;0.30;93.00;;;-1.95;43.55;101040.81;10249723;28;96482;-82
2024/01/09 03:34:43;;;;;;;2.53;1.20;;;0.20;91.50;;;-1.98;44.42;101060.03;10249810;28;96479;-82
2024/01/09 03:39:47;;;;;;;5.57;1.53;;;0.20;92.80;;;-2.10;43.81;101060.53;10245252;28;96540;-82
2024/01/09 03:44:51;;;;;;;2.90;1.20;;;0.10;90.40;;;-2.22;44.88;101066.28;10256457;28;98485;-82
2024/01/09 03:49:54;;;;;;;2.27;1.20;;;0.00;92.60;;;-2.33;44.78;101073.72;10255935;28;96499;-82
2024/01/09 03:54:58;;;;;;;4.83;1.60;;;-0.10;93.60;;;-2.40;44.57;101078.31;10255552;28;96675;-82
2024/01/09 04:00:01;;;;;;;3.20;0.97;;;-0.20;91.80;;;-2.46;44.80;101082.03;10255684;28;96386;-82
2024/01/09 04:05:07;;;;;;;4.43;1.30;;;-0.30;91.30;;;-2.48;44.91;101094.25;10254529;28;96583;-82
2024/01/09 04:10:12;;;;;;;2.40;1.03;;;-0.30;92.40;;;-2.56;45.20;101093.72;10245754;28;96483;-82
2024/01/09 04:15:16;;;;;;;3.17;1.23;;;-0.30;92.20;;;-2.53;45.84;101095.34;10254835;28;96671;-82
2024/01/09 04:20:20;;;;;;;4.03;1.33;;;-0.30;93.40;;;-2.56;44.85;101104.13;10238189;28;97291;-82
2024/01/09 04:25:23;;;;;;;1.83;0.80;;;-0.40;91.80;;;-2.59;44.72;101119.00;10257932;28;97572;-82
2024/01/09 04:30:28;;;;;;;2.00;0.90;;;-0.40;92.20;;;-2.63;45.00;101122.66;10253548;28;96544;-82
2024/01/09 04:35:31;;;;;;;2.77;1.10;;;-0.40;92.20;;;-2.64;44.98;101132.19;10269411;28;96523;-82
2024/01/09 04:40:34;;;;;;;2.60;0.83;;;-0.40;93.90;;;-2.63;45.68;101136.53;10252791;28;96590;-82
2024/01/09 04:45:38;;;;;;;2.53;1.07;;;-0.40;93.70;;;-2.56;45.66;101137.13;10254433;28;96553;-83
2024/01/09 04:50:41;;;;;;;1.73;1.00;;;-0.40;92.70;;;-2.52;45.07;101149.97;10254288;28;96633;-83
2024/01/09 04:55:45;;;;;;;4.10;1.07;;;-0.30;92.90;;;-2.46;45.56;101146.22;10254305;28;96776;-83
2024/01/09 05:00:48;;;;;;;3.67;1.20;;;-0.30;95.00;;;-2.40;45.09;101146.00;10254143;28;96388;-83
2024/01/09 05:05:52;;;;;;;2.33;0.80;;;-0.20;92.90;;;-2.37;45.47;101145.03;10247840;28;96591;-83
2024/01/09 05:10:55;;;;;;;2.80;1.20;;;-0.10;94.00;;;-2.30;43.65;101159.50;10249931;28;96557;-83
2024/01/09 05:15:59;;;;;;;4.20;1.20;;;-0.10;91.70;;;-2.26;44.81;101158.47;10253598;28;96742;-83
2024/01/09 05:21:02;;;;;;;3.60;1.20;;;-0.10;91.40;;;-2.25;43.84;101163.59;10221056;28;96481;-83
2024/01/09 05:26:06;;;;;;;3.40;1.37;;;-0.10;92.50;;;-2.20;45.15;101176.44;10235452;28;96664;-83
2024/01/09 05:31:10;;;;;;;2.80;1.10;;;0.00;94.70;;;-2.19;43.74;101180.72;10248132;28;96532;-83
2024/01/09 05:36:18;;;;;;;2.90;1.20;;;0.00;88.10;;;-2.16;44.71;101197.09;10241203;28;96552;-83
2024/01/09 05:41:23;;;;;;;3.30;1.40;;;0.00;92.90;;;-2.16;45.47;101193.63;10251934;28;96457;-84
2024/01/09 05:46:27;;;;;;;5.57;1.27;;;0.00;92.60;;;-2.13;45.21;101195.25;10217832;28;96564;-84
2024/01/09 05:51:30;;;;;;;4.33;1.37;;;0.00;93.10;;;-2.11;44.82;101209.91;10252866;28;96566;-84
2024/01/09 05:56:33;;;;;;;3.27;1.20;;;0.10;93.70;;;-2.13;46.00;101211.72;10250772;28;96525;-82
2024/01/09 06:01:37;;;;;;;3.47;1.10;;;0.10;94.20;;;-2.09;45.35;101215.91;10256326;28;97125;-83
2024/01/09 06:06:40;;;;;;;3.13;0.90;;;0.10;92.70;;;-2.10;45.38;101221.16;10253071;28;98004;-83
2024/01/09 06:11:44;;;;;;;3.17;1.20;;;0.10;93.00;;;-2.10;45.05;101235.03;10237949;28;96812;-82
2024/01/09 06:16:48;;;;;;;2.73;1.17;;;0.10;93.50;;;-2.10;44.26;101236.78;10248892;28;96718;-84
2024/01/09 06:21:51;;;;;;;3.53;1.23;;;0.10;91.50;;;-2.08;43.02;101251.47;10230016;28;96787;-83
2024/01/09 06:26:55;;;;;;;2.57;0.80;;;0.10;90.20;;;-2.07;44.47;101260.13;10283910;28;96865;-83
2024/01/09 06:31:58;;;;;;;4.40;1.53;;;0.10;90.50;;;-2.04;44.79;101267.78;10262070;28;96875;-83
2024/01/09 06:37:02;;;;;;;2.27;0.93;;;0.10;91.60;;;-2.01;42.90;101278.09;10252141;28;96558;-83
2024/01/09 06:42:06;;;;;;;4.70;1.33;;;0.10;86.60;;;-2.01;45.79;101284.16;10267095;28;96771;-83
2024/01/09 06:47:10;;;;;;;3.30;1.00;;;0.20;93.70;;;-2.04;45.87;101275.59;10257249;28;97750;-83
2024/01/09 06:52:13;;;;;;;2.87;1.00;;;0.20;91.40;;;-1.94;44.38;101295.19;10290875;28;96508;-83
2024/01/09 06:57:17;;;;;;;5.33;1.53;;;0.20;90.40;;;-1.92;44.20;101304.66;10277526;28;96781;-83
2024/01/09 07:02:21;;;;;;;2.33;1.30;;;0.20;89.50;;;-1.93;44.73;101313.34;10234006;28;96987;-82
2024/01/09 07:07:24;;;;;;;3.30;1.53;;;0.20;92.60;;;-1.87;44.80;101322.69;10248376;28;96563;-83
2024/01/09 07:12:40;;;;;;;3.70;1.30;;;0.30;92.10;;;-1.86;44.06;101328.72;10241849;28;96493;-82
2024/01/09 07:17:47;;;;;;;10.53;2.83;;;0.30;91.50;;;-1.85;44.22;101330.47;10223931;28;96573;-83
2024/01/09 07:22:52;;;;;;;6.33;2.00;;;0.30;91.60;;;-1.80;43.86;101349.34;10266860;28;96548;-85
2024/01/09 07:28:08;;;;;;;6.30;2.57;;;0.30;90.70;;;-1.77;44.56;101360.50;10265952;28;96629;-84
2024/01/09 07:33:11;;;;;;;4.17;2.10;;;0.40;90.50;;;-1.71;45.15;101362.00;10230984;28;96507;-84
2024/01/09 07:38:21;;;;;;;5.87;2.50;;;0.40;91.30;;;-1.68;43.39;101369.69;10269414;28;98034;-84
2024/01/09 07:43:25;;;;;;;3.70;1.43;;;0.50;89.10;;;-1.61;44.83;101384.22;10255772;28;97788;-84
2024/01/09 07:48:28;;;;;;;6.13;1.60;;;0.50;92.10;;;-1.58;44.35;101383.22;10256456;28;96531;-84
2024/01/09 07:53:32;;;;;;;8.60;2.47;;;0.60;89.30;;;-1.54;44.28;101376.97;10254918;28;96611;-84
2024/01/09 07:58:35;;;;;;;4.20;1.77;;;0.60;90.80;;;-1.47;44.81;101389.69;10241063;28;96681;-84
2024/01/09 08:03:40;;;;;;;5.67;2.00;;;0.60;91.40;;;-1.38;45.46;101397.16;10245472;28;96583;-84
2024/01/09 08:08:44;;;;;;;4.30;1.73;;;0.70;91.10;;;-1.31;44.02;101389.94;10269404;28;96843;-84
2024/01/09 08:13:52;;;;;;;4.23;1.80;;;0.90;91.20;;;-1.23;45.21;101400.03;10250836;28;96514;-84
2024/01/09 08:18:57;;;;;;;2.07;1.20;;;0.90;92.40;;;-1.15;44.51;101405.78;10243363;28;96600;-84
2024/01/09 08:24:02;;;;;;;2.50;1.03;;;1.00;91.70;;;-1.08;44.36;101415.03;10241385;28;96506;-84
2024/01/09 08:29:06;;;;;;;4.00;1.73;;;1.00;91.00;;;-0.98;44.00;101418.97;10256993;28;96464;-84
2024/01/09 08:34:09;;;;;;;3.60;1.30;;;1.10;92.10;;;-0.89;44.30;101413.38;10254782;28;96526;-84
2024/01/09 08:39:15;;;;;;;4.80;1.50;;;1.20;90.50;;;-0.71;44.32;101421.34;10256129;28;96479;-84
2024/01/09 08:44:19;;;;;;;4.47;1.27;;;1.40;92.80;;;-0.44;44.41;101425.34;10245328;28;96616;-84
2024/01/09 08:49:23;;;;;;;5.10;1.57;;;1.60;91.10;;;-0.31;42.54;101436.09;10253893;28;96569;-84
2024/01/09 08:54:27;;;;;;;2.47;1.37;;;1.70;90.40;;;-0.23;43.53;101441.84;10253345;28;96578;-84
2024/01/09 08:59:31;;;;;;;1.93;1.00;;;1.80;91.20;;;-0.16;42.72;101450.25;10250823;28;96555;-84
2024/01/09 09:04:34;;;;;;;5.27;1.63;;;1.90;90.20;;;-0.11;44.40;101450.91;10253708;28;96491;-84
2024/01/09 09:09:38;;;;;;;5.13;1.70;;;1.90;91.50;;;-0.10;41.31;101456.06;10249880;28;96963;-84
2024/01/09 09:14:41;;;;;;;5.90;2.60;;;2.00;84.70;;;-0.10;42.34;101453.44;10237997;28;96620;-85
2024/01/09 09:19:45;;;;;;;6.90;3.17;;;2.00;89.40;;;-0.01;42.90;101455.63;10252386;28;97831;-82
2024/01/09 09:24:49;;;;;;;3.40;1.27;;;2.10;90.40;;;0.11;40.34;101453.38;10253439;28;96634;-82
2024/01/09 09:29:53;;;;;;;4.80;1.50;;;2.20;79.80;;;0.20;42.96;101447.72;10252030;28;96474;-84
2024/01/09 09:34:56;;;;;;;3.70;1.50;;;2.30;87.80;;;0.32;42.43;101454.16;10286939;28;97730;-82
2024/01/09 09:40:00;;;;;;;5.47;1.87;;;2.40;84.50;;;0.46;43.52;101451.72;10273933;28;97426;-82
2024/01/09 09:45:13;;;;;;;3.57;1.40;;;2.60;87.80;;;0.57;41.70;101454.69;10250919;28;96589;-82
2024/01/09 09:50:18;;;;;;;5.53;2.10;;;2.70;85.80;;;0.74;42.56;101446.88;10276103;28;97030;-82
2024/01/09 09:55:22;;;;;;;3.03;1.40;;;2.80;85.10;;;0.88;42.58;101455.81;10227018;28;96637;-82
2024/01/09 10:00:25;;;;;;;3.03;1.40;;;3.00;85.70;;;0.99;41.79;101454.38;10234193;28;97217;-83
2024/01/09 10:05:32;;;;;;;4.33;1.57;;;3.10;85.70;;;1.10;41.00;101451.22;10242000;28;96554;-83
2024/01/09 10:10:36;;;;;;;2.10;1.27;;;3.20;85.70;;;1.21;39.03;101453.31;10246950;28;96593;-83
2024/01/09 10:16:01;;;;;;;10.33;2.93;;;3.30;79.80;;;1.37;39.33;101451.59;10257561;28;97902;-83
2024/01/09 10:21:05;;;;;;;4.27;1.97;;;3.50;87.70;;;1.57;38.72;101453.22;10251971;28;96415;-83
2024/01/09 10:26:12;;;;;;;4.50;1.60;;;3.60;81.60;;;1.66;39.93;101455.34;10252134;28;96441;-83
2024/01/09 10:31:15;;;;;;;4.47;1.33;;;3.70;83.70;;;1.48;39.10;101461.53;10251244;28;96570;-83
2024/01/09 10:36:19;;;;;;;5.53;2.70;;;3.60;78.90;;;1.21;39.01;101459.41;10248243;28;96530;-83
2024/01/09 10:41:23;;;;;;;8.53;3.87;;;3.30;83.30;;;1.05;41.31;101468.94;10282055;28;96531;-83
2024/01/09 10:46:29;;;;;;;5.73;2.03;;;3.10;86.10;;;0.87;40.61;101464.59;10247060;28;96574;-83
2024/01/09 10:51:34;;;;;;;4.63;2.30;;;3.00;87.50;;;0.74;39.72;101478.28;10267840;28;96956;-82
2024/01/09 10:56:40;;;;;;;4.47;1.73;;;2.90;76.90;;;0.90;37.54;101472.28;10249532;28;96529;-83
2024/01/09 11:01:43;;;;;;;5.23;1.40;;;3.00;78.80;;;1.49;38.13;101468.44;10249339;28;96605;-83
2024/01/09 11:06:49;;;;;;;4.63;1.33;;;3.60;78.00;;;1.65;37.27;101465.91;10256805;28;96365;-84
2024/01/09 11:11:53;;;;;;;4.27;1.77;;;3.80;75.30;;;1.75;38.38;101467.97;10224735;28;96529;-83
2024/01/09 11:16:57;;;;;;;6.33;2.83;;;3.80;80.20;;;1.85;37.79;101470.94;10246100;28;96510;-83
2024/01/09 11:22:15;;;;;;;5.70;1.60;;;3.80;83.00;;;1.71;37.68;101473.44;10247959;28;97964;-83
2024/01/09 11:27:19;;;;;;;5.03;1.60;;;3.60;80.60;;;1.50;35.30;101470.13;10248597;28;96647;-83
2024/01/09 11:32:26;;;;;;;2.90;1.13;;;3.40;71.50;;;1.33;38.93;101471.88;10238609;28;96712;-83
2024/01/09 11:37:30;;;;;;;3.00;1.40;;;3.30;85.70;;;1.16;38.88;101466.63;10245133;28;97422;-83
2024/01/09 11:42:40;;;;;;;5.03;1.90;;;3.20;80.40;;;1.07;40.23;101470.53;10239538;28;96471;-83
2024/01/09 11:47:46;;;;;;;3.43;1.83;;;3.10;84.30;;;1.06;40.01;101478.47;10233350;28;96693;-83
2024/01/09 11:52:50;;;;;;;3.33;1.13;;;3.10;80.00;;;1.11;41.59;101473.88;10245990;28;96626;-83
2024/01/09 11:57:55;;;;;;;3.60;0.93;;;3.10;84.20;;;1.12;39.42;101472.94;10238414;28;97074;-83
2024/01/09 12:03:00;;;;;;;4.37;1.10;;;3.10;79.30;;;1.12;41.14;101465.06;10255096;28;96685;-83
2024/01/09 12:08:04;;;;;;;2.40;1.00;;;3.10;84.10;;;1.15;40.88;101464.94;10253652;28;96605;-83
2024/01/09 12:13:07;;;;;;;4.57;1.40;;;3.20;79.10;;;1.15;39.51;101462.31;10255450;28;96520;-83
2024/01/09 12:18:11;;;;;;;4.00;1.40;;;3.10;79.90;;;1.16;38.79;101465.78;10253259;28;96524;-83
2024/01/09 12:23:16;;;;;;;2.70;1.23;;;3.20;73.90;;;1.18;38.87;101462.16;10271052;28;97700;-83
2024/01/09 12:28:19;;;;;;;2.77;1.30;;;3.20;73.50;;;1.18;40.17;101466.53;10261208;28;96455;-83
2024/01/09 12:33:23;;;;;;;3.27;1.60;;;3.20;82.20;;;1.25;40.49;101466.16;10260288;28;96612;-83
2024/01/09 12:38:27;;;;;;;4.07;1.70;;;3.20;79.40;;;1.29;41.29;101475.56;10255331;28;96456;-84
2024/01/09 12:43:31;;;;;;;3.43;1.17;;;3.30;81.40;;;1.38;40.22;101476.00;10253911;28;96533;-83
2024/01/09 12:48:35;;;;;;;5.73;2.23;;;3.40;76.40;;;1.51;39.92;101477.94;10254162;28;96436;-83
2024/01/09 12:53:41;;;;;;;3.93;1.40;;;3.50;74.40;;;1.66;39.65;101478.91;10238873;28;96423;-83
2024/01/09 12:58:46;;;;;;;5.53;2.73;;;3.70;78.80;;;1.75;39.81;101482.84;10237594;28;97365;-83
2024/01/09 13:03:51;;;;;;;3.63;1.50;;;3.80;75.10;;;1.77;41.49;101489.69;10253461;28;96970;-83
2024/01/09 13:08:55;;;;;;;3.33;1.47;;;3.80;83.20;;;1.71;40.47;101481.31;10254111;28;97580;-83
2024/01/09 13:13:59;;;;;;;1.83;1.10;;;3.80;76.60;;;1.62;37.78;101495.75;10252117;28;96970;-83
2024/01/09 13:19:04;;;;;;;4.27;1.70;;;3.70;72.30;;;1.49;38.82;101494.66;10254955;28;96497;-83
2024/01/09 13:24:08;;;;;;;4.30;1.40;;;3.60;73.30;;;1.44;38.73;101494.03;10252842;28;96410;-83
2024/01/09 13:29:12;;;;;;;4.73;1.70;;;3.50;72.80;;;1.38;38.80;101499.56;10252607;28;96646;-83
2024/01/09 13:34:35;;;;;;;6.97;3.13;;;3.50;68.80;;;1.30;40.04;101500.81;10254026;28;96552;-83
2024/01/09 13:39:40;;;;;;;11.50;3.43;;;3.40;79.50;;;1.25;39.93;101513.28;10253305;28;96529;-84
2024/01/09 13:44:43;;;;;;;6.50;2.13;;;3.30;73.60;;;1.21;39.71;101503.06;10253761;28;96407;-85
2024/01/09 13:49:47;;;;;;;6.77;2.07;;;3.30;71.60;;;1.09;40.71;101494.03;10254075;28;97981;-83
2024/01/09 13:55:12;;;;;;;8.43;3.00;;;3.20;75.20;;;1.04;42.84;101504.72;10252392;28;96426;-83
2024/01/09 14:00:17;;;;;;;7.70;3.00;;;3.10;80.20;;;1.03;42.60;101510.91;10251756;28;96509;-84
2024/01/09 14:05:20;;;;;;;5.90;2.10;;;3.10;77.80;;;0.97;42.68;101518.19;10235321;28;97184;-84
2024/01/09 14:10:24;;;;;;;4.57;1.60;;;3.00;78.40;;;0.90;44.17;101522.88;10251496;28;96488;-84
2024/01/09 14:15:28;;;;;;;4.83;1.87;;;3.00;82.90;;;0.83;44.07;101531.09;10252088;28;96499;-84
2024/01/09 14:20:32;;;;;;;5.13;2.00;;;2.90;81.60;;;0.77;42.82;101538.28;10252303;28;96428;-84
2024/01/09 14:25:36;;;;;;;6.47;2.50;;;2.80;75.70;;;0.65;44.03;101527.56;10251605;28;96381;-84
2024/01/09 14:30:46;;;;;;;5.27;2.30;;;2.70;81.70;;;0.58;44.22;101539.25;10281281;28;96579;-84
2024/01/09 14:35:49;;;;;;;10.97;3.80;;;2.60;83.00;;;0.45;45.26;101547.66;10253294;28;96418;-84
2024/01/09 14:40:53;;;;;;;14.57;5.57;;;2.60;82.70;;;0.32;46.18;101543.91;10249009;28;96589;-84
2024/01/09 14:45:57;;;;;;;17.40;6.70;;;2.40;84.40;;;0.19;46.47;101545.38;10295122;28;96828;-84
2024/01/09 14:51:01;;;;;;;17.03;5.20;;;2.30;84.20;;;0.02;47.79;101553.13;10249388;28;96455;-84
2024/01/09 14:56:04;;;;;;;22.90;8.63;;;2.10;85.00;;;-0.19;49.04;101560.94;10249052;28;96626;-84
2024/01/09 15:01:08;;;;;;;30.70;10.47;;;2.00;86.30;;;-0.43;50.43;101567.22;10250261;28;96712;-84
2024/01/09 15:06:12;;;;;;;43.20;13.43;;;1.70;88.80;;;-0.66;51.98;101569.03;10250799;28;96526;-84
2024/01/09 15:11:16;;;;;;;29.03;12.77;;;1.50;89.20;;;-0.90;53.41;101572.59;10245356;28;96567;-84
2024/01/09 15:16:21;;;;;;;29.43;11.17;;;1.30;91.30;;;-1.11;54.58;101571.72;10232485;28;96568;-84
2024/01/09 15:21:25;;;;;;;28.50;8.90;;;1.10;91.00;;;-1.24;55.29;101580.94;10250277;28;97866;-84
2024/01/09 15:26:28;;;;;;;30.77;9.73;;;0.90;91.30;;;-1.38;56.48;101597.94;10250816;28;96470;-84
2024/01/09 15:31:35;;;;;;;21.53;7.27;;;0.70;91.60;;;-1.51;57.52;101604.50;10248873;28;96553;-84
2024/01/09 15:36:40;;;;;;;20.17;6.63;;;0.60;92.00;;;-1.66;58.60;101592.03;10250808;28;96568;-84
2024/01/09 15:41:44;;;;;;;22.00;7.23;;;0.40;92.30;;;-1.80;60.27;101609.91;10238081;28;96873;-82
2024/01/09 15:46:49;;;;;;;15.30;4.83;;;0.30;92.80;;;-1.95;61.20;101621.75;10251504;28;96665;-83
2024/01/09 15:51:53;;;;;;;19.90;8.23;;;0.10;92.80;;;-2.06;62.34;101623.88;10238979;28;96540;-85
2024/01/09 15:56:56;;;;;;;11.97;3.87;;;0.00;93.80;;;-2.18;62.85;101620.75;10280956;28;98173;-83
2024/01/09 16:02:00;;;;;;;27.20;9.57;;;-0.10;94.90;;;-2.23;61.86;101624.44;10255162;28;96459;-83
2024/01/09 16:07:04;;;;;;;13.93;6.20;;;-0.20;95.40;;;-2.18;61.72;101630.34;10229120;28;96548;-83
2024/01/09 16:12:08;;;;;;;25.87;9.57;;;-0.20;96.70;;;-2.12;60.33;101630.13;10236869;28;96543;-83
2024/01/09 16:17:19;;;;;;;38.80;13.57;;;-0.10;96.70;;;-2.14;59.17;101636.31;10254803;28;96739;-83
2024/01/09 16:22:22;;;;;;;23.77;8.97;;;-0.20;96.70;;;-2.20;59.56;101637.34;10254210;28;96762;-84
2024/01/09 16:27:26;;;;;;;24.57;9.83;;;-0.20;97.80;;;-2.19;59.26;101646.88;10253592;28;97111;-83
2024/01/09 16:32:30;;;;;;;33.83;9.13;;;-0.20;97.10;;;-2.23;59.68;101656.53;10252072;28;97166;-84
2024/01/09 16:37:34;;;;;;;19.20;6.10;;;-0.20;96.80;;;-2.28;60.38;101660.19;10253063;28;96486;-83
2024/01/09 16:42:37;;;;;;;16.73;5.80;;;-0.30;96.30;;;-2.34;61.25;101668.19;10271471;28;97859;-83
2024/01/09 16:47:41;;;;;;;20.70;6.67;;;-0.30;95.80;;;-2.46;63.18;101667.72;10248431;28;96551;-83
2024/01/09 16:52:48;;;;;;;21.47;6.33;;;-0.40;96.00;;;-2.65;64.17;101683.94;10240276;28;96608;-82
2024/01/09 16:57:52;;;;;;;20.97;7.87;;;-0.60;96.70;;;-2.84;64.29;101671.47;10244391;28;96532;-82
2024/01/09 17:02:57;;;;;;;18.67;8.23;;;-0.70;97.50;;;-2.97;66.03;101684.00;10217985;28;96656;-82
2024/01/09 17:08:00;;;;;;;21.77;9.17;;;-0.90;97.00;;;-3.12;67.88;101696.59;10284190;28;97877;-83
2024/01/09 17:13:04;;;;;;;24.47;9.30;;;-1.00;97.20;;;-3.27;68.85;101697.91;10267719;28;96611;-83
2024/01/09 17:18:07;;;;;;;43.50;11.53;;;-1.10;98.20;;;-3.43;69.04;101696.59;10252359;28;96541;-83
2024/01/09 17:23:11;;;;;;;38.93;13.30;;;-1.30;98.50;;;-3.57;70.55;101702.19;10252196;28;96561;-83
2024/01/09 17:28:15;;;;;;;44.87;14.87;;;-1.40;98.30;;;-3.69;72.18;101700.78;10261598;28;96671;-82
2024/01/09 17:33:18;;;;;;;34.17;11.60;;;-1.40;98.60;;;-3.80;73.08;101708.00;10246543;28;97469;-83
2024/01/09 17:38:22;;;;;;;42.87;13.13;;;-1.60;99.10;;;-3.91;73.69;101712.59;10252970;28;96522;-82
2024/01/09 17:43:26;;;;;;;39.17;12.17;;;-1.70;98.80;;;-3.97;74.04;101717.94;10224797;28;96580;-83
2024/01/09 17:48:29;;;;;;;46.93;13.77;;;-1.70;99.60;;;-4.02;74.38;101712.88;10256342;28;96563;-91
2024/01/09 17:53:37;;;;;;;38.90;13.70;;;-1.80;99.70;;;-4.11;74.97;101721.75;10255780;28;97127;-82
2024/01/09 17:58:40;;;;;;;34.20;13.63;;;-1.80;99.90;;;-4.11;76.00;101723.50;10266051;28;96593;-82
2024/01/09 18:03:45;;;;;;;32.30;12.10;;;-1.30;99.90;;;-4.13;76.66;101727.88;10259437;28;97204;-82
2024/01/09 18:08:49;;;;;;;31.70;10.60;;;-1.00;99.90;;;-4.21;77.02;101732.38;10266589;28;96600;-81
2024/01/09 18:13:54;;;;;;;29.70;11.43;;;-1.00;99.90;;;-4.28;77.81;101721.28;10246657;28;96924;-82
2024/01/09 18:18:58;;;;;;;32.00;10.43;;;-1.10;99.90;;;-4.40;78.06;101739.75;10257327;28;96506;-81
2024/01/09 18:24:01;;;;;;;37.80;13.63;;;-1.50;99.90;;;-4.53;79.14;101738.31;10233171;28;97431;-81
2024/01/09 18:29:06;;;;;;;49.13;15.23;;;-1.80;99.90;;;-4.66;79.63;101738.59;10281101;28;97742;-81
2024/01/09 18:34:21;;;;;;;59.17;20.27;;;-2.10;99.90;;;-4.78;80.53;101751.81;10262039;28;97083;-81
2024/01/09 18:39:25;;;;;;;35.60;13.40;;;-2.30;99.90;;;-4.85;80.41;101760.63;10268114;28;96595;-80
2024/01/09 18:44:29;;;;;;;31.20;12.30;;;-2.40;99.90;;;-4.97;81.27;101748.75;10280773;28;96535;-81
2024/01/09 18:49:35;;;;;;;28.50;12.07;;;-2.50;99.90;;;-5.01;81.52;101759.22;10256919;28;97470;-81
2024/01/09 18:54:39;;;;;;;26.40;10.70;;;-2.60;99.90;;;-5.06;81.68;101755.88;10257782;28;96887;-81
2024/01/09 18:59:43;;;;;;;20.43;8.37;;;-2.70;99.90;;;-5.09;81.84;101761.13;10242236;28;97626;-81
2024/01/09 19:04:48;;;;;;;23.33;7.63;;;-2.70;99.90;;;-5.11;80.74;101754.19;10236513;28;97077;-81
2024/01/09 19:09:52;;;;;;;21.77;7.90;;;-2.80;99.50;;;-5.13;80.98;101762.91;10282485;28;96668;-81
2024/01/09 19:14:56;;;;;;;27.17;9.83;;;-2.80;99.20;;;-5.25;81.57;101758.81;10288745;28;96511;-81
2024/01/09 19:19:59;;;;;;;34.73;9.47;;;-2.80;99.70;;;-5.30;81.38;101763.22;10292991;28;96641;-81
2024/01/09 19:25:03;;;;;;;27.43;10.23;;;-2.90;99.90;;;-5.35;81.46;101765.03;10280615;28;96623;-81
2024/01/09 19:30:09;;;;;;;28.23;10.00;;;-2.90;99.90;;;-5.38;81.41;101767.72;10243976;28;96643;-81
2024/01/09 19:35:13;;;;;;;17.47;6.47;;;-3.00;99.90;;;-5.40;81.62;101777.22;10256772;28;96615;-81
2024/01/09 19:40:16;;;;;;;15.13;5.93;;;-3.00;99.90;;;-5.48;81.45;101777.38;10255273;28;98118;-81
2024/01/09 19:45:20;;;;;;;14.90;5.67;;;-3.10;99.90;;;-5.55;82.32;101780.97;10238950;28;96507;-81
2024/01/09 19:50:23;;;;;;;16.43;5.77;;;-3.20;99.90;;;-5.54;82.21;101785.25;10256287;28;96527;-81
2024/01/09 19:55:27;;;;;;;12.00;5.57;;;-3.20;99.70;;;-5.57;81.83;101787.91;10269230;28;96559;-81
2024/01/09 20:00:30;;;;;;;12.23;6.40;;;-3.20;99.90;;;-5.61;82.10;101787.97;10257121;28;96974;-81
2024/01/09 20:05:34;;;;;;;11.23;5.13;;;-3.20;99.90;;;-5.65;81.84;101787.16;10270228;28;96444;-82
2024/01/09 20:10:40;;;;;;;12.27;4.00;;;-3.30;99.90;;;-5.69;81.58;101794.16;10269020;28;96604;-82
2024/01/09 20:15:44;;;;;;;8.50;4.17;;;-3.30;99.90;;;-5.77;81.83;101798.59;10277701;28;96701;-81
2024/01/09 20:20:47;;;;;;;18.60;6.73;;;-3.40;99.90;;;-5.82;82.16;101789.19;10254349;28;96823;-81
2024/01/09 20:25:51;;;;;;;13.00;5.53;;;-3.40;99.90;;;-5.91;83.23;101790.22;10232075;28;96457;-81
2024/01/09 20:30:55;;;;;;;12.43;5.40;;;-3.50;99.90;;;-5.98;83.84;101802.41;10232400;28;96636;-80
2024/01/09 20:35:59;;;;;;;13.67;6.33;;;-3.60;99.90;;;-6.03;83.70;101805.97;10253705;28;96560;-81
2024/01/09 20:41:05;;;;;;;11.73;4.07;;;-3.60;99.90;;;-6.13;84.53;101806.97;10255755;28;96511;-81
2024/01/09 20:46:09;;;;;;;17.07;5.90;;;-3.70;99.90;;;-6.17;85.12;101813.09;10249678;28;96826;-80
2024/01/09 20:51:12;;;;;;;17.00;5.93;;;-3.80;99.90;;;-6.25;85.53;101811.44;10242283;28;97869;-81
2024/01/09 20:56:16;;;;;;;13.87;4.67;;;-3.80;99.90;;;-6.35;86.22;101816.78;10253420;28;96559;-83
2024/01/09 21:01:19;;;;;;;20.37;7.93;;;-3.90;99.90;;;-6.38;86.21;101825.41;10255086;28;96467;-83